Time;durP1;ratioP1;P1;durP2;ratioP2;P2;SDS_P1;SDS_P2;PMS_P1;PMS_P2;Temp;Humidity;BMP_temperature;BMP_pressure;BME280_temperature;BME280_humidity;BME280_pressure;Samples;Min_cycle;Max_cycle;Signal;HPM_P1;HPM_P2
2022/10/03 00:01:37;;;;;;;24.70;22.20;;;25.70;99.90;;;;;;4956619;28;20199;-93
2022/10/03 00:04:20;;;;;;;25.80;22.07;;;25.80;99.90;;;;;;4957456;28;20208;-93
2022/10/03 00:07:03;;;;;;;25.93;22.70;;;25.80;99.90;;;;;;4957469;28;20249;-92
2022/10/03 00:10:04;;;;;;;25.10;22.47;;;25.70;99.90;;;;;;4957925;28;20207;-93
2022/10/03 00:13:02;;;;;;;27.63;22.57;;;25.50;99.90;;;;;;4955933;29;20221;-90
2022/10/03 00:15:43;;;;;;;24.90;22.30;;;25.20;99.90;;;;;;4959002;28;20239;-92
2022/10/03 00:18:34;;;;;;;24.90;22.50;;;25.10;99.90;;;;;;4958658;28;20218;-90
2022/10/03 00:21:19;;;;;;;25.03;22.10;;;24.90;99.90;;;;;;4961631;28;20690;-93
2022/10/03 00:23:59;;;;;;;23.60;20.90;;;24.80;99.90;;;;;;4956616;29;20207;-93
2022/10/03 00:26:45;;;;;;;24.47;21.87;;;24.60;99.90;;;;;;4957082;28;20247;-93
2022/10/03 00:43:09;;;;;;;19.27;16.40;;;24.40;99.90;;;;;;5020181;27;3366874;-92
2022/10/03 00:46:20;;;;;;;17.50;15.60;;;23.80;99.90;;;;;;5072681;28;20201;-92
2022/10/03 00:49:37;;;;;;;16.17;14.03;;;23.70;99.90;;;;;;5112608;28;20213;-92
2022/10/03 00:52:25;;;;;;;16.43;14.20;;;23.60;99.90;;;;;;5111004;28;20256;-92
2022/10/03 00:55:13;;;;;;;16.10;14.07;;;23.50;99.90;;;;;;5095581;28;20213;-92
2022/10/03 00:58:07;;;;;;;16.47;13.73;;;23.40;99.90;;;;;;5093928;28;20207;-93
2022/10/03 01:00:42;;;;;;;14.70;13.20;;;23.30;99.90;;;;;;5091783;28;20731;-93
2022/10/03 01:03:42;;;;;;;14.67;12.77;;;23.10;99.90;;;;;;5090813;28;20237;-92
2022/10/03 01:06:25;;;;;;;15.97;12.80;;;23.00;99.90;;;;;;5091273;28;20579;-91
2022/10/03 01:09:23;;;;;;;14.87;12.73;;;22.90;99.90;;;;;;5094310;28;20599;-92
2022/10/03 01:12:26;;;;;;;14.97;12.73;;;22.80;99.90;;;;;;5088686;28;20242;-93
2022/10/03 01:15:17;;;;;;;13.93;12.43;;;22.70;99.90;;;;;;5082250;28;20294;-92
2022/10/03 01:18:08;;;;;;;15.77;13.33;;;22.50;99.90;;;;;;5091358;28;20673;-93
2022/10/03 01:20:48;;;;;;;17.33;13.67;;;22.40;99.90;;;;;;5091352;28;20225;-92
2022/10/03 01:23:46;;;;;;;15.87;12.93;;;22.20;99.90;;;;;;5090079;28;20207;-92
2022/10/03 01:26:40;;;;;;;13.97;12.57;;;22.10;99.90;;;;;;5090300;28;20317;-92
2022/10/03 01:32:09;;;;;;;16.60;12.97;;;21.90;99.90;;;;;;5089377;28;20239;-92
2022/10/03 01:34:47;;;;;;;14.77;13.33;;;21.80;99.90;;;;;;5090660;28;20214;-92
2022/10/03 01:37:28;;;;;;;13.73;12.33;;;21.70;99.90;;;;;;5090773;28;20207;-92
2022/10/03 01:40:09;;;;;;;16.30;13.80;;;21.60;99.90;;;;;;5090480;28;20669;-92
2022/10/03 01:42:46;;;;;;;14.50;13.10;;;21.50;99.90;;;;;;5081182;28;20217;-92
2022/10/03 01:45:30;;;;;;;15.50;13.27;;;21.30;99.90;;;;;;5076948;28;20207;-92
2022/10/03 01:48:07;;;;;;;16.20;13.00;;;21.10;99.90;;;;;;5076809;28;20255;-91
2022/10/03 01:50:51;;;;;;;14.37;12.97;;;21.00;99.90;;;;;;5076001;28;20622;-93
2022/10/03 01:53:32;;;;;;;14.50;13.10;;;20.80;99.90;;;;;;5075768;28;20211;-91
2022/10/03 01:56:09;;;;;;;14.67;13.13;;;20.60;99.90;;;;;;5076202;28;20213;-93
2022/10/03 01:58:50;;;;;;;16.37;13.00;;;20.40;99.90;;;;;;5076127;28;20207;-92
2022/10/03 02:01:30;;;;;;;17.23;13.13;;;20.30;99.90;;;;;;5075767;28;20207;-93
2022/10/03 02:04:06;;;;;;;15.13;13.43;;;20.30;99.90;;;;;;5074997;28;20218;-92
2022/10/03 02:06:51;;;;;;;16.63;13.77;;;20.30;99.90;;;;;;5076193;28;20233;-92
2022/10/03 02:09:31;;;;;;;15.10;12.13;;;20.20;99.90;;;;;;5076375;28;20203;-91
2022/10/03 02:12:10;;;;;;;13.50;12.10;;;20.10;99.90;;;;;;5076300;28;20598;-93
2022/10/03 02:14:52;;;;;;;15.50;12.50;;;20.00;99.90;;;;;;5077489;28;20681;-93
2022/10/03 02:17:30;;;;;;;15.33;13.03;;;19.80;99.90;;;;;;5077663;28;20646;-92
2022/10/03 02:20:13;;;;;;;14.93;12.97;;;19.80;99.90;;;;;;5077259;28;20230;-92
2022/10/03 02:22:47;;;;;;;14.10;12.60;;;19.60;99.90;;;;;;5076879;28;20208;-92
2022/10/03 02:25:26;;;;;;;20.83;13.70;;;19.50;99.90;;;;;;5078453;28;20219;-91
2022/10/03 02:28:29;;;;;;;14.30;12.80;;;19.40;99.90;;;;;;5076353;28;20207;-91
2022/10/03 02:31:36;;;;;;;17.57;13.67;;;19.30;99.90;;;;;;5075859;28;20323;-92
2022/10/03 02:34:42;;;;;;;16.60;13.30;;;19.30;99.90;;;;;;5075969;28;20264;-91
2022/10/03 02:37:58;;;;;;;18.93;14.40;;;19.20;99.90;;;;;;5072373;28;20210;-92
2022/10/03 02:41:10;;;;;;;15.87;13.17;;;19.10;99.90;;;;;;5049340;28;20215;-90
2022/10/03 02:44:19;;;;;;;19.93;13.43;;;19.00;99.90;;;;;;5065821;28;20234;-91
2022/10/03 02:47:33;;;;;;;15.00;12.83;;;18.90;99.90;;;;;;5085327;28;20222;-92
2022/10/03 02:50:41;;;;;;;14.93;13.40;;;18.80;99.90;;;;;;5091807;28;20198;-92
2022/10/03 02:53:56;;;;;;;17.30;13.10;;;18.70;99.90;;;;;;5095030;28;20218;-92
2022/10/03 02:57:05;;;;;;;21.37;13.77;;;18.60;99.90;;;;;;5096652;28;20213;-93
2022/10/03 03:00:05;;;;;;;14.10;12.70;;;18.60;99.90;;;;;;5022813;28;20217;-91
2022/10/03 03:03:11;;;;;;;15.33;13.50;;;18.50;99.90;;;;;;5095340;28;20207;-91
2022/10/03 03:06:19;;;;;;;17.67;13.60;;;18.40;99.90;;;;;;5096279;28;20206;-92
2022/10/03 03:09:30;;;;;;;18.10;13.77;;;18.40;99.90;;;;;;5066988;28;20214;-92
2022/10/03 03:12:28;;;;;;;17.00;14.47;;;18.30;99.90;;;;;;5074679;28;20272;-92
2022/10/03 03:15:55;;;;;;;16.07;14.43;;;18.20;99.90;;;;;;5075346;28;20211;-91
2022/10/03 03:18:35;;;;;;;17.67;15.43;;;18.20;99.90;;;;;;5075262;28;20662;-91
2022/10/03 03:21:21;;;;;;;16.47;14.63;;;18.10;99.90;;;;;;5076198;28;20225;-91
2022/10/03 03:24:27;;;;;;;16.67;13.77;;;18.10;99.90;;;;;;5076227;28;20206;-92
2022/10/03 03:27:14;;;;;;;16.03;13.80;;;18.00;99.90;;;;;;5075637;28;20207;-91
2022/10/03 03:29:54;;;;;;;15.57;13.97;;;18.00;99.90;;;;;;5076074;28;20561;-91
2022/10/03 03:32:40;;;;;;;17.13;14.87;;;17.90;99.90;;;;;;5083402;28;20218;-92
2022/10/03 03:35:22;;;;;;;20.17;14.73;;;17.90;99.90;;;;;;5097766;28;21020;-92
2022/10/03 03:38:03;;;;;;;16.00;14.30;;;17.80;99.90;;;;;;5095668;28;20672;-91
2022/10/03 03:40:44;;;;;;;15.73;13.73;;;17.80;99.90;;;;;;5095819;28;20285;-92
2022/10/03 03:43:43;;;;;;;16.17;14.47;;;17.70;99.90;;;;;;5096499;28;20293;-92
2022/10/03 03:46:28;;;;;;;16.80;13.67;;;17.70;99.90;;;;;;5096210;28;20278;-91
2022/10/03 03:49:16;;;;;;;15.80;13.63;;;17.60;99.90;;;;;;5095952;28;20660;-91
2022/10/03 03:51:59;;;;;;;15.17;13.57;;;17.60;99.90;;;;;;5096486;28;20215;-91
2022/10/03 03:55:04;;;;;;;15.03;13.40;;;17.50;99.90;;;;;;5097135;28;20218;-92
2022/10/03 03:57:59;;;;;;;16.57;13.90;;;17.50;99.90;;;;;;5098397;28;20218;-91
2022/10/03 04:00:48;;;;;;;14.97;13.37;;;17.50;99.90;;;;;;5097355;28;20276;-93
2022/10/03 04:03:43;;;;;;;16.70;14.17;;;17.40;99.90;;;;;;5096510;28;20210;-92
2022/10/03 04:06:40;;;;;;;15.03;13.50;;;17.40;99.90;;;;;;5114868;28;20206;-92
2022/10/03 04:09:32;;;;;;;16.63;14.03;;;17.40;99.90;;;;;;5113973;28;20209;-92
2022/10/03 04:12:18;;;;;;;16.30;14.10;;;17.30;99.90;;;;;;5114109;28;20215;-92
2022/10/03 04:15:26;;;;;;;16.13;13.77;;;17.30;99.90;;;;;;5105502;28;20236;-92
2022/10/03 04:21:16;;;;;;;19.30;15.30;;;17.20;99.90;;;;;;4757204;28;10000170;-92
2022/10/03 04:24:08;;;;;;;16.60;14.87;;;17.20;99.90;;;;;;5106784;28;20230;-92
2022/10/03 04:26:51;;;;;;;16.13;14.43;;;17.10;99.90;;;;;;5098426;28;20649;-90
2022/10/03 04:29:46;;;;;;;16.00;14.30;;;17.20;99.90;;;;;;5095330;28;20206;-92
2022/10/03 04:32:56;;;;;;;14.93;13.43;;;17.10;99.90;;;;;;5087751;28;20564;-92
2022/10/03 04:35:54;;;;;;;16.20;14.43;;;17.10;99.90;;;;;;5061485;28;20203;-91
2022/10/03 04:38:41;;;;;;;16.53;14.83;;;17.00;99.90;;;;;;5074855;28;20208;-91
2022/10/03 04:41:23;;;;;;;15.83;14.13;;;17.00;99.90;;;;;;5074090;28;20302;-91
2022/10/03 04:44:07;;;;;;;16.63;14.97;;;17.00;99.90;;;;;;5077835;28;20318;-94
2022/10/03 04:46:46;;;;;;;17.63;14.67;;;16.90;99.90;;;;;;5088601;28;20207;-94
2022/10/03 04:49:25;;;;;;;16.00;14.30;;;16.90;99.90;;;;;;5106332;28;20199;-95
2022/10/03 04:52:01;;;;;;;16.43;14.80;;;16.80;99.90;;;;;;5108665;28;20266;-94
2022/10/03 04:54:47;;;;;;;16.70;14.90;;;16.80;99.90;;;;;;5111597;28;20262;-93
2022/10/03 04:57:36;;;;;;;17.07;14.47;;;16.70;99.90;;;;;;5077543;28;20243;-93
2022/10/03 05:00:24;;;;;;;16.30;14.57;;;16.70;99.90;;;;;;5077636;28;20212;-93
2022/10/03 05:03:05;;;;;;;19.67;15.27;;;16.70;99.90;;;;;;5095725;28;20241;-93
2022/10/03 05:05:49;;;;;;;16.77;15.07;;;16.60;99.90;;;;;;5090342;28;20211;-93
2022/10/03 05:08:29;;;;;;;17.47;15.53;;;16.60;99.90;;;;;;5095236;28;20641;-95
2022/10/03 05:11:11;;;;;;;16.93;15.13;;;16.60;99.90;;;;;;5099262;28;20217;-92
2022/10/03 05:14:01;;;;;;;16.80;15.07;;;16.50;99.90;;;;;;5089778;28;20294;-92
2022/10/03 05:16:50;;;;;;;18.50;14.93;;;16.50;99.90;;;;;;5098160;28;20211;-92
2022/10/03 05:19:45;;;;;;;17.37;15.40;;;16.50;99.90;;;;;;5095905;28;20276;-93
2022/10/03 05:22:43;;;;;;;19.17;14.77;;;16.40;99.90;;;;;;5083012;28;20245;-92
2022/10/03 05:25:22;;;;;;;16.97;15.07;;;16.40;99.90;;;;;;5095278;28;20206;-93
2022/10/03 05:28:02;;;;;;;18.27;16.20;;;16.30;99.90;;;;;;5089436;28;20203;-93
2022/10/03 05:30:44;;;;;;;19.40;15.70;;;16.30;99.90;;;;;;5096974;28;20721;-93
2022/10/03 05:33:26;;;;;;;20.73;15.73;;;16.30;99.90;;;;;;5097770;28;20211;-93
2022/10/03 05:36:10;;;;;;;18.13;16.07;;;16.30;99.90;;;;;;5101076;28;20202;-92
2022/10/03 05:39:35;;;;;;;20.40;15.47;;;16.20;99.90;;;;;;5092957;28;20207;-93
2022/10/03 05:42:24;;;;;;;18.73;15.53;;;16.20;99.90;;;;;;5076133;28;20218;-93
2022/10/03 05:45:04;;;;;;;19.67;15.90;;;16.20;99.90;;;;;;5077487;28;20211;-93
2022/10/03 05:47:49;;;;;;;22.80;16.43;;;16.20;99.90;;;;;;5078002;28;20216;-92
2022/10/03 05:50:50;;;;;;;20.43;15.93;;;16.10;99.90;;;;;;5078084;28;20212;-92
2022/10/03 05:53:48;;;;;;;21.57;15.93;;;16.10;99.90;;;;;;5064002;28;20319;-93
2022/10/03 05:56:30;;;;;;;17.90;15.97;;;16.10;99.90;;;;;;5078463;28;20214;-93
2022/10/03 05:59:36;;;;;;;20.80;15.57;;;16.00;99.90;;;;;;5078282;28;20215;-94
2022/10/03 06:02:43;;;;;;;17.27;15.47;;;16.00;99.90;;;;;;5077035;28;20245;-94
2022/10/03 06:05:42;;;;;;;18.30;16.10;;;16.00;99.90;;;;;;5078197;28;20215;-94
2022/10/03 06:08:42;;;;;;;21.20;17.53;;;16.00;99.90;;;;;;5076956;28;20673;-92
2022/10/03 06:11:33;;;;;;;17.57;15.70;;;16.00;99.90;;;;;;5097673;28;20233;-93
2022/10/03 06:14:35;;;;;;;19.10;16.57;;;15.90;99.90;;;;;;5080908;28;20207;-94
2022/10/03 06:17:41;;;;;;;17.23;15.43;;;15.90;99.90;;;;;;5086608;28;20233;-94
2022/10/03 06:20:47;;;;;;;18.23;15.50;;;15.90;99.90;;;;;;5096483;28;20210;-93
2022/10/03 06:23:56;;;;;;;20.13;16.87;;;15.80;99.90;;;;;;5095591;28;20236;-92
2022/10/03 06:26:47;;;;;;;18.50;15.50;;;15.80;99.90;;;;;;5077588;28;20204;-93
2022/10/03 06:29:51;;;;;;;20.13;16.37;;;15.80;99.90;;;;;;5077433;28;20204;-94
2022/10/03 06:32:52;;;;;;;19.20;14.93;;;15.80;99.90;;;;;;5076647;28;20218;-93
2022/10/03 06:36:02;;;;;;;17.40;15.53;;;15.80;99.90;;;;;;5077163;28;20216;-92
2022/10/03 06:39:10;;;;;;;20.87;15.53;;;15.80;99.90;;;;;;5079046;28;20234;-92
2022/10/03 06:42:19;;;;;;;17.47;15.57;;;15.70;99.90;;;;;;5050285;28;20221;-95
2022/10/03 06:45:20;;;;;;;18.80;15.53;;;15.70;99.90;;;;;;5078819;28;20230;-93
2022/10/03 06:48:17;;;;;;;19.20;16.83;;;15.70;99.90;;;;;;5062895;28;20215;-94
2022/10/03 06:50:58;;;;;;;19.73;16.47;;;15.60;99.90;;;;;;5098459;28;20199;-93
2022/10/03 06:53:42;;;;;;;20.23;16.90;;;15.60;99.90;;;;;;5096104;28;20210;-92
2022/10/03 06:56:42;;;;;;;21.37;17.67;;;15.50;99.90;;;;;;5096985;28;20213;-93
2022/10/03 06:59:51;;;;;;;21.37;18.37;;;15.50;99.90;;;;;;5096321;28;20275;-92
2022/10/03 07:02:56;;;;;;;19.27;17.27;;;15.50;99.90;;;;;;5084547;28;20214;-93
2022/10/03 07:05:56;;;;;;;19.83;16.67;;;15.50;99.90;;;;;;5097556;28;20218;-92
2022/10/03 07:09:03;;;;;;;20.57;16.43;;;15.50;99.90;;;;;;5097628;28;20207;-93
2022/10/03 07:12:05;;;;;;;20.60;15.87;;;15.40;99.90;;;;;;5097234;28;20228;-93
2022/10/03 07:15:08;;;;;;;19.03;16.47;;;15.40;99.90;;;;;;5096798;28;20215;-93
2022/10/03 07:18:11;;;;;;;18.37;16.47;;;15.40;99.90;;;;;;5094610;28;20286;-94
2022/10/03 07:21:30;;;;;;;21.23;15.57;;;15.40;99.90;;;;;;5081223;28;20578;-92
2022/10/03 07:24:28;;;;;;;16.23;14.53;;;15.40;99.90;;;;;;5032693;28;20235;-93
2022/10/03 07:27:20;;;;;;;17.07;15.27;;;15.40;99.90;;;;;;5091833;28;20188;-95
2022/10/03 07:30:21;;;;;;;16.77;15.07;;;15.30;99.90;;;;;;5077297;28;20206;-93
2022/10/03 07:33:26;;;;;;;17.50;14.77;;;15.30;99.90;;;;;;5094516;28;20207;-94
2022/10/03 07:39:45;;;;;;;17.90;15.50;;;15.30;99.90;;;;;;5089112;28;20630;-94
2022/10/03 07:43:01;;;;;;;17.60;15.00;;;15.30;99.90;;;;;;5094647;28;20215;-93
2022/10/03 07:46:03;;;;;;;18.33;15.37;;;15.30;99.90;;;;;;5081885;28;20673;-94
2022/10/03 07:48:55;;;;;;;18.17;15.07;;;15.20;99.90;;;;;;5095659;28;20480;-94
2022/10/03 07:51:36;;;;;;;18.53;16.53;;;15.20;99.90;;;;;;5095370;28;20200;-94
2022/10/03 07:54:26;;;;;;;16.70;14.87;;;15.20;99.90;;;;;;5095514;28;20213;-93
2022/10/03 07:57:31;;;;;;;19.67;14.93;;;15.20;99.90;;;;;;5095422;28;20243;-92
2022/10/03 08:00:18;;;;;;;17.03;15.23;;;15.20;99.90;;;;;;5074435;28;20213;-92
2022/10/03 08:03:26;;;;;;;18.53;15.73;;;15.10;99.90;;;;;;5073876;28;20203;-91
2022/10/03 08:06:17;;;;;;;18.23;15.73;;;15.10;99.90;;;;;;5075671;28;20215;-93
2022/10/03 08:09:23;;;;;;;17.97;15.70;;;15.00;99.90;;;;;;5076425;28;20266;-94
2022/10/03 08:12:28;;;;;;;18.63;16.03;;;15.00;99.90;;;;;;5074575;28;20219;-92
2022/10/03 08:15:06;;;;;;;19.43;16.60;;;14.90;99.90;;;;;;5075648;28;20286;-93
2022/10/03 08:18:28;;;;;;;19.67;17.63;;;14.90;99.90;;;;;;5076020;28;20661;-93
2022/10/03 08:21:01;;;;;;;22.07;17.40;;;14.90;99.90;;;;;;4994694;28;20236;-93
2022/10/03 08:24:05;;;;;;;21.17;17.90;;;14.80;99.90;;;;;;5060698;28;20665;-94
2022/10/03 08:27:00;;;;;;;20.07;17.93;;;14.80;99.90;;;;;;5076170;28;20218;-93
2022/10/03 08:29:56;;;;;;;20.03;17.90;;;14.70;99.90;;;;;;5075718;28;20199;-93
2022/10/03 08:32:57;;;;;;;21.83;19.00;;;14.70;99.90;;;;;;5075534;28;20210;-93
2022/10/03 08:35:53;;;;;;;21.83;19.53;;;14.70;99.90;;;;;;5078827;28;20268;-93
2022/10/03 08:38:59;;;;;;;23.77;19.90;;;14.70;99.90;;;;;;5078830;28;20212;-94
2022/10/03 08:41:56;;;;;;;23.80;20.37;;;14.70;99.90;;;;;;5077734;28;20219;-93
2022/10/03 08:44:59;;;;;;;23.03;20.63;;;14.60;99.90;;;;;;5074735;28;20231;-92
2022/10/03 08:48:07;;;;;;;25.50;22.03;;;14.60;99.90;;;;;;5078555;28;20255;-94
2022/10/03 08:51:11;;;;;;;27.30;21.70;;;14.50;99.90;;;;;;5076764;28;20214;-93
2022/10/03 08:54:08;;;;;;;25.40;22.73;;;14.50;99.90;;;;;;5076903;28;20225;-93
2022/10/03 08:57:24;;;;;;;25.87;22.77;;;14.50;99.90;;;;;;5080123;28;20203;-93
2022/10/03 09:00:12;;;;;;;28.23;23.27;;;14.50;99.90;;;;;;5094005;28;20209;-93
2022/10/03 09:03:14;;;;;;;26.60;23.80;;;14.40;99.90;;;;;;5098748;28;20542;-93
2022/10/03 09:06:53;;;;;;;30.90;26.00;;;14.40;99.90;;;;;;5078477;28;20234;-92
2022/10/03 09:10:15;;;;;;;32.03;25.97;;;14.40;99.90;;;;;;5021082;28;20213;-93
2022/10/03 09:13:13;;;;;;;30.83;27.53;;;14.40;99.90;;;;;;5099734;28;20213;-93
2022/10/03 09:16:26;;;;;;;33.47;27.90;;;14.40;99.90;;;;;;5101175;28;20213;-93
2022/10/03 09:19:30;;;;;;;35.23;28.33;;;14.40;99.90;;;;;;5088832;28;20259;-92
2022/10/03 09:22:15;;;;;;;34.33;28.33;;;14.30;99.90;;;;;;5119082;28;20179;-94
2022/10/03 09:25:22;;;;;;;37.10;30.27;;;14.30;99.90;;;;;;5119720;28;20255;-93
2022/10/03 09:28:37;;;;;;;32.90;29.10;;;14.30;99.90;;;;;;5118754;28;20250;-93
2022/10/03 09:31:31;;;;;;;34.67;29.87;;;14.30;99.90;;;;;;5115176;28;20237;-93
2022/10/03 09:34:27;;;;;;;33.63;29.53;;;14.40;99.90;;;;;;5099258;28;20671;-94
2022/10/03 09:37:44;;;;;;;32.40;28.33;;;14.40;99.90;;;;;;5101197;28;20213;-92
2022/10/03 09:40:35;;;;;;;36.47;30.30;;;14.30;99.90;;;;;;5095958;28;20237;-93
2022/10/03 09:43:39;;;;;;;32.90;29.40;;;14.30;99.90;;;;;;5099443;28;20207;-93
2022/10/03 09:47:21;;;;;;;35.17;30.87;;;14.30;99.90;;;;;;5076457;28;20230;-93
2022/10/03 09:50:37;;;;;;;34.80;29.80;;;14.20;99.90;;;;;;5118354;28;20236;-93
2022/10/03 09:53:46;;;;;;;35.57;30.07;;;14.20;99.90;;;;;;5022562;28;20300;-94
2022/10/03 09:56:48;;;;;;;33.97;29.00;;;14.10;99.90;;;;;;5109301;28;20213;-93
2022/10/03 09:59:33;;;;;;;34.73;28.93;;;14.10;99.90;;;;;;5099859;28;20703;-93
2022/10/03 10:02:23;;;;;;;33.43;29.07;;;14.00;99.90;;;;;;5101189;28;20199;-94
2022/10/03 10:05:10;;;;;;;33.13;29.53;;;14.00;99.90;;;;;;5098851;28;20227;-93
2022/10/03 10:08:08;;;;;;;37.47;30.83;;;14.00;99.90;;;;;;5099444;28;20578;-93
2022/10/03 10:10:55;;;;;;;33.40;29.83;;;13.90;99.90;;;;;;5091216;28;20233;-93
2022/10/03 10:14:12;;;;;;;33.70;29.23;;;13.90;99.90;;;;;;5100342;28;20210;-92
2022/10/03 10:17:11;;;;;;;35.90;31.77;;;13.80;99.90;;;;;;5099287;28;20203;-93
2022/10/03 10:20:00;;;;;;;33.37;29.80;;;13.80;99.90;;;;;;5093023;28;20214;-93
2022/10/03 10:23:01;;;;;;;34.73;29.63;;;13.80;99.90;;;;;;5098037;28;20211;-93
2022/10/03 10:25:54;;;;;;;34.03;30.13;;;13.70;99.90;;;;;;5097776;28;20242;-93
2022/10/03 10:29:07;;;;;;;34.20;29.67;;;13.70;99.90;;;;;;5095846;28;20207;-93
2022/10/03 10:32:20;;;;;;;33.50;28.93;;;13.60;99.90;;;;;;5098603;28;20207;-93
2022/10/03 10:35:36;;;;;;;33.10;29.57;;;13.60;99.90;;;;;;5097557;28;20219;-94
2022/10/03 10:38:26;;;;;;;35.40;29.53;;;13.60;99.90;;;;;;5050955;28;20210;-93
2022/10/03 10:41:41;;;;;;;36.70;29.60;;;13.60;99.90;;;;;;5096679;28;20203;-93
2022/10/03 10:44:55;;;;;;;34.63;30.33;;;13.50;99.90;;;;;;5096838;28;20668;-93
2022/10/03 10:47:58;;;;;;;36.93;30.20;;;13.50;99.90;;;;;;5096875;28;20672;-91
2022/10/03 10:51:25;;;;;;;33.17;28.90;;;13.50;99.90;;;;;;5065292;28;20207;-91
2022/10/03 10:54:47;;;;;;;35.37;29.80;;;13.50;99.90;;;;;;5094451;28;20222;-95
2022/10/03 10:57:39;;;;;;;32.60;29.17;;;13.50;99.90;;;;;;5096329;28;20237;-93
2022/10/03 11:00:40;;;;;;;33.50;28.47;;;13.40;99.90;;;;;;5096318;28;20207;-92
2022/10/03 11:03:44;;;;;;;32.13;28.73;;;13.40;99.90;;;;;;5095458;28;20229;-93
2022/10/03 11:06:53;;;;;;;36.30;31.00;;;13.40;99.90;;;;;;5095107;28;20230;-94
2022/10/03 11:09:54;;;;;;;34.23;28.97;;;13.40;99.90;;;;;;5096386;28;20203;-93
2022/10/03 11:13:03;;;;;;;33.57;29.80;;;13.30;99.90;;;;;;5095247;28;20210;-94
2022/10/03 11:16:09;;;;;;;34.13;29.47;;;13.30;99.90;;;;;;5094577;28;20210;-92
2022/10/03 11:19:30;;;;;;;33.70;29.27;;;13.30;99.90;;;;;;5071960;28;20217;-94
2022/10/03 11:22:50;;;;;;;33.83;28.97;;;13.20;99.90;;;;;;5091366;28;20211;-93
2022/10/03 11:25:58;;;;;;;37.73;30.67;;;13.20;99.90;;;;;;5098534;28;20300;-92
2022/10/03 11:29:07;;;;;;;32.77;29.23;;;13.20;99.90;;;;;;5068129;28;20256;-92
2022/10/03 11:32:11;;;;;;;34.67;30.17;;;13.20;99.90;;;;;;5097128;28;20195;-95
2022/10/03 11:35:38;;;;;;;33.27;29.23;;;13.10;99.90;;;;;;4750100;28;9999660;-94
2022/10/03 11:38:21;;;;;;;32.47;29.10;;;13.10;99.90;;;;;;5004987;28;20209;-93
2022/10/03 11:41:02;;;;;;;32.60;29.03;;;13.00;99.90;;;;;;5018692;28;20212;-94
2022/10/03 11:44:04;;;;;;;34.20;29.57;;;13.00;99.90;;;;;;5101608;28;20267;-93
2022/10/03 11:46:59;;;;;;;32.40;28.80;;;13.00;99.90;;;;;;5111938;28;20230;-94
2022/10/03 11:49:54;;;;;;;34.53;29.60;;;13.00;99.90;;;;;;5097427;28;20203;-92
2022/10/03 11:52:36;;;;;;;34.27;30.53;;;12.90;99.90;;;;;;5095828;28;20214;-92
2022/10/03 11:55:27;;;;;;;35.30;28.90;;;12.90;99.90;;;;;;5096640;28;20203;-93
2022/10/03 11:58:11;;;;;;;34.40;28.47;;;12.90;99.90;;;;;;5095994;28;20214;-92
2022/10/03 12:00:46;;;;;;;38.37;30.60;;;12.80;99.90;;;;;;5095855;28;20663;-92
2022/10/03 12:03:25;;;;;;;35.10;30.03;;;12.90;99.90;;;;;;5094920;28;20206;-93
2022/10/03 12:08:58;;;;;;;33.33;28.57;;;12.80;99.90;;;;;;5094775;28;20206;-92
2022/10/03 12:11:39;;;;;;;31.37;28.07;;;12.90;99.90;;;;;;5094811;28;20207;-92
2022/10/03 12:14:28;;;;;;;32.53;28.93;;;12.90;99.90;;;;;;5095467;28;20207;-91
2022/10/03 12:17:06;;;;;;;31.53;27.97;;;12.90;99.90;;;;;;5098147;28;20214;-92
2022/10/03 12:19:48;;;;;;;31.87;28.17;;;12.80;99.90;;;;;;5096227;28;20596;-94
2022/10/03 12:22:37;;;;;;;31.73;28.27;;;12.80;99.90;;;;;;5092476;28;20209;-93
2022/10/03 12:25:24;;;;;;;31.27;27.97;;;12.80;99.90;;;;;;5075033;28;20313;-94
2022/10/03 12:28:14;;;;;;;32.60;27.83;;;12.80;99.90;;;;;;5074719;28;20221;-94
2022/10/03 12:30:51;;;;;;;33.63;27.63;;;12.80;99.90;;;;;;5075213;28;20932;-92
2022/10/03 12:33:46;;;;;;;31.93;28.50;;;12.80;99.90;;;;;;5074328;28;20211;-93
2022/10/03 12:36:22;;;;;;;33.07;27.70;;;12.70;99.90;;;;;;5075101;28;20657;-93
2022/10/03 12:39:18;;;;;;;34.93;28.50;;;12.70;99.90;;;;;;5074872;28;20211;-93
2022/10/03 12:42:03;;;;;;;30.63;27.43;;;12.70;99.90;;;;;;5074003;28;20221;-94
2022/10/03 12:44:46;;;;;;;30.70;27.40;;;12.70;99.90;;;;;;5074910;28;20642;-92
2022/10/03 12:47:33;;;;;;;34.93;28.10;;;12.60;99.90;;;;;;5074387;28;20231;-92
2022/10/03 12:50:38;;;;;;;31.87;27.60;;;12.60;99.90;;;;;;5074774;28;20203;-93
2022/10/03 12:53:37;;;;;;;31.50;26.83;;;12.60;99.90;;;;;;5073684;28;20214;-93
2022/10/03 12:56:17;;;;;;;31.47;26.67;;;12.60;99.90;;;;;;5074983;28;20211;-92
2022/10/03 12:58:54;;;;;;;30.27;26.93;;;12.60;99.90;;;;;;5079067;28;20198;-92
2022/10/03 13:01:39;;;;;;;31.77;28.40;;;12.50;99.90;;;;;;5074036;28;20218;-93
2022/10/03 13:04:22;;;;;;;32.07;28.57;;;12.60;99.90;;;;;;5075215;28;20231;-92
2022/10/03 13:07:18;;;;;;;31.37;27.47;;;12.60;99.90;;;;;;5078064;28;20674;-93
2022/10/03 13:10:10;;;;;;;30.97;26.60;;;12.60;99.90;;;;;;5073573;28;20222;-94
2022/10/03 13:12:51;;;;;;;31.63;28.07;;;12.60;99.90;;;;;;5076521;28;20298;-92
2022/10/03 13:15:47;;;;;;;31.57;27.73;;;12.50;99.90;;;;;;5079031;28;20290;-91
2022/10/03 13:18:34;;;;;;;33.67;27.87;;;12.50;99.90;;;;;;5074956;28;20215;-93
2022/10/03 13:21:12;;;;;;;30.67;27.37;;;12.40;99.90;;;;;;5074479;28;20271;-93
2022/10/03 13:24:11;;;;;;;31.90;26.80;;;12.40;99.90;;;;;;5074674;28;20208;-93
2022/10/03 13:26:54;;;;;;;30.60;27.40;;;12.40;99.90;;;;;;5075470;28;20242;-93
2022/10/03 13:29:29;;;;;;;30.67;27.43;;;12.40;99.90;;;;;;5074157;28;20215;-93
2022/10/03 13:32:11;;;;;;;29.67;26.53;;;12.40;99.90;;;;;;5073287;28;20215;-91
2022/10/03 13:35:57;;;;;;;30.40;26.83;;;12.40;99.90;;;;;;5074325;28;20217;-92
2022/10/03 13:38:14;;;;;;;31.87;27.83;;;12.40;99.90;;;;;;5074162;28;20227;-94
2022/10/03 13:40:52;;;;;;;33.43;27.73;;;12.40;99.90;;;;;;5077493;28;20211;-93
2022/10/03 13:43:36;;;;;;;32.13;28.63;;;12.40;99.90;;;;;;5076909;28;20214;-90
2022/10/03 13:46:15;;;;;;;32.23;28.70;;;12.30;99.90;;;;;;5076951;28;20207;-91
2022/10/03 13:48:54;;;;;;;30.63;26.93;;;12.30;99.90;;;;;;5077930;28;20630;-94
2022/10/03 13:51:43;;;;;;;36.53;28.73;;;12.30;99.90;;;;;;5077864;28;20203;-92
2022/10/03 13:54:21;;;;;;;32.27;27.77;;;12.30;99.90;;;;;;5077379;28;20238;-91
2022/10/03 13:56:56;;;;;;;34.33;27.67;;;12.30;99.90;;;;;;5077209;28;20211;-93
2022/10/03 13:59:42;;;;;;;34.87;28.67;;;12.30;99.90;;;;;;5076338;28;20211;-93
2022/10/03 14:02:31;;;;;;;32.83;28.13;;;12.30;99.90;;;;;;5076675;28;20241;-93
2022/10/03 14:05:50;;;;;;;32.13;27.97;;;12.30;99.90;;;;;;5077557;28;20290;-92
2022/10/03 14:08:40;;;;;;;31.73;27.87;;;12.30;99.90;;;;;;5049529;28;20590;-93
2022/10/03 14:11:38;;;;;;;33.07;28.70;;;12.30;99.90;;;;;;5077212;28;20208;-94
2022/10/03 14:14:34;;;;;;;36.77;29.07;;;12.30;99.90;;;;;;5076942;28;20215;-95
2022/10/03 14:17:13;;;;;;;32.43;27.97;;;12.30;99.90;;;;;;5077764;28;20559;-92
2022/10/03 14:20:01;;;;;;;33.33;28.30;;;12.30;99.90;;;;;;5076918;28;20203;-93
2022/10/03 14:22:46;;;;;;;31.20;27.90;;;12.30;99.90;;;;;;5077135;28;20214;-93
2022/10/03 14:25:25;;;;;;;31.23;27.87;;;12.30;99.90;;;;;;5085155;28;20217;-93
2022/10/03 14:27:58;;;;;;;31.43;28.13;;;12.30;99.90;;;;;;5099441;28;20230;-92
2022/10/03 14:30:36;;;;;;;31.67;28.27;;;12.30;99.90;;;;;;5099814;28;20207;-92
2022/10/03 14:33:31;;;;;;;33.07;27.47;;;12.30;99.90;;;;;;5097956;28;20203;-93
2022/10/03 14:36:16;;;;;;;30.00;26.87;;;12.40;99.90;;;;;;5097346;28;20206;-93
2022/10/03 14:39:02;;;;;;;31.70;26.57;;;12.40;99.90;;;;;;5103320;28;20321;-93
2022/10/03 14:41:50;;;;;;;29.77;26.20;;;12.40;99.90;;;;;;5098640;28;20238;-93
2022/10/03 14:44:24;;;;;;;33.73;26.83;;;12.50;99.90;;;;;;5098155;28;20222;-93
2022/10/03 14:47:00;;;;;;;30.17;26.57;;;12.50;99.90;;;;;;5101138;28;20226;-93
2022/10/03 14:49:35;;;;;;;29.70;26.50;;;12.50;99.90;;;;;;5098531;28;20672;-93
2022/10/03 14:52:34;;;;;;;30.33;27.13;;;12.50;99.90;;;;;;5093984;28;20203;-93
2022/10/03 14:55:13;;;;;;;32.70;26.47;;;12.60;99.90;;;;;;5106150;28;20199;-93
2022/10/03 14:57:49;;;;;;;32.17;26.07;;;12.60;99.90;;;;;;5103976;28;20198;-92
2022/10/03 15:00:44;;;;;;;28.77;25.67;;;12.60;99.90;;;;;;5112411;28;20209;-93
2022/10/03 15:03:24;;;;;;;34.60;26.13;;;12.60;99.90;;;;;;5108282;28;20640;-93
2022/10/03 15:06:02;;;;;;;32.00;26.30;;;12.70;99.90;;;;;;5100906;28;20213;-92